LFKB/BIA METAR and TAF weather

Enter ICAO airport designator
Station Type Date Time Source
LFKB METAR 2019/02/21 12:30 UTC NOAA

LFKB 211230Z AUTO 06005KT 020V110 9999 SCT030 BKN035 14/09 Q1028 NOSIG


Station Type Date Time Source
LFKB Decoded METAR 2019/02/21 12:30 UTC NOAA

Bastia, France (LFKB) 42-33N 009-29E 12M
Feb 21, 2019 - 07:30 AM EST / 2019.02.21 1230 UTC
Wind: from the ENE (060 degrees) at 6 MPH (5 KT) (direction variable):0
Visibility: greater than 7 mile(s):0
Sky conditions: mostly cloudy
Temperature: 57 F (14 C)
Dew Point: 48 F (9 C)
Relative Humidity: 71%
Pressure (altimeter): 30.36 in. Hg (1028 hPa)
ob: LFKB 211230Z AUTO 06005KT 020V110 9999 SCT030 BKN035 14/09 Q1028 NOSIG
cycle: 12

Station Type Date Time Source
LFKB TAF 2019/02/21 09:42 UTC NOAA

TAF TAF LFKB 210800Z 2109/2209 12005KT 9999 FEW030 TX15/2113Z TN04/2205Z


Example: see airport list